createdAt,value
2023-01-08T00:02:26.221Z,97816.69
2023-01-08T00:04:52.758Z,97813.63
2023-01-08T00:07:19.385Z,97815.84
2023-01-08T00:09:45.938Z,97807.31
2023-01-08T00:12:12.521Z,97799.53
2023-01-08T00:14:39.051Z,97792.22
2023-01-08T00:17:05.616Z,97779.38
2023-01-08T00:19:32.184Z,97779.38
2023-01-08T00:21:58.789Z,97786.81
2023-01-08T00:24:25.444Z,97779.53
2023-01-08T00:26:52.003Z,97769.09
2023-01-08T00:29:18.675Z,97774.09
2023-01-08T00:31:45.617Z,97777.16
2023-01-08T00:34:12.230Z,97775.44
2023-01-08T00:36:39.169Z,97774.66
2023-01-08T00:39:05.823Z,97773.59
2023-01-08T00:41:32.425Z,97778.59
2023-01-08T00:43:59.017Z,97770.38
2023-01-08T00:46:25.715Z,97768.25
2023-01-08T00:48:52.441Z,97750.94
2023-01-08T00:51:19.059Z,97750.75
2023-01-08T00:53:45.649Z,97739.09
2023-01-08T00:56:12.347Z,97738.59
2023-01-08T00:58:39.278Z,97731.06
2023-01-08T01:01:13.400Z,97727.78
2023-01-08T01:03:40.880Z,97742.41
2023-01-08T01:06:08.379Z,97735.78
2023-01-08T01:08:35.407Z,97728.78
2023-01-08T01:11:10.483Z,97733.44
2023-01-08T01:13:37.522Z,97728.72
2023-01-08T01:16:04.288Z,97717.66
2023-01-08T01:18:31.310Z,97716.50
2023-01-08T01:20:58.347Z,97713.03
2023-01-08T01:23:25.390Z,97718.22
2023-01-08T01:25:52.021Z,97717.78
2023-01-08T01:28:18.767Z,97719.91
2023-01-08T01:30:45.447Z,97721.91
2023-01-08T01:33:12.127Z,97732.28
2023-01-08T01:35:38.669Z,97726.38
2023-01-08T01:38:05.244Z,97720.94
2023-01-08T01:40:31.804Z,97721.03
2023-01-08T01:42:58.405Z,97718.59
2023-01-08T01:45:27.976Z,97728.66
2023-01-08T01:47:59.832Z,97731.72
2023-01-08T01:50:38.009Z,97731.78
2023-01-08T01:53:18.074Z,97726.94
2023-01-08T01:55:45.821Z,97733.94
2023-01-08T01:58:32.215Z,97743.34
2023-01-08T02:01:04.557Z,97740.34
2023-01-08T02:03:35.561Z,97735.34
2023-01-08T02:06:36.087Z,97731.84
2023-01-08T02:09:06.961Z,97725.97
2023-01-08T02:11:49.019Z,97728.69
2023-01-08T02:17:18.250Z,97716.25
2023-01-08T02:19:53.359Z,97697.41
2023-01-08T02:22:47.936Z,97698.81
2023-01-08T02:25:45.375Z,97695.69
2023-01-08T02:30:49.982Z,97687.09
2023-01-08T02:33:16.567Z,97678.31
2023-01-08T02:35:52.395Z,97680.94
2023-01-08T02:38:18.948Z,97671.53
2023-01-08T02:41:05.645Z,97672.81
2023-01-08T02:43:38.428Z,97662.03
2023-01-08T02:46:09.471Z,97649.63
2023-01-08T02:48:47.390Z,97648.84
2023-01-08T02:51:16.708Z,97651.28
2023-01-08T02:53:47.262Z,97642.00
2023-01-08T02:56:18.142Z,97634.91
2023-01-08T02:58:46.998Z,97631.28
2023-01-08T03:01:16.552Z,97631.84
2023-01-08T03:03:46.965Z,97629.72
2023-01-08T03:06:17.552Z,97622.41
2023-01-08T03:08:47.759Z,97627.13
2023-01-08T03:11:17.465Z,97621.88
2023-01-08T03:14:15.826Z,97621.06
2023-01-08T03:16:53.072Z,97629.69
2023-01-08T03:19:23.908Z,97616.53
2023-01-08T03:21:52.362Z,97616.53
2023-01-08T03:24:26.926Z,97617.88
2023-01-08T03:29:30.087Z,97613.31
2023-01-08T03:32:02.204Z,97607.91
2023-01-08T03:34:30.967Z,97605.81
2023-01-08T03:37:00.580Z,97594.59
2023-01-08T03:39:43.541Z,97588.56
2023-01-08T03:42:12.432Z,97586.63
2023-01-08T03:44:39.333Z,97582.75
2023-01-08T03:47:08.809Z,97590.59
2023-01-08T03:49:36.505Z,97586.34
2023-01-08T03:52:03.177Z,97584.88
2023-01-08T03:57:06.357Z,97578.63
2023-01-08T03:59:32.885Z,97576.00
2023-01-08T04:01:59.521Z,97577.09
2023-01-08T04:04:26.220Z,97575.81
2023-01-08T04:06:53.742Z,97571.16
2023-01-08T04:09:20.605Z,97571.38
2023-01-08T04:11:47.154Z,97563.97
2023-01-08T04:14:13.746Z,97568.34
2023-01-08T04:16:40.267Z,97567.94
2023-01-08T04:19:06.863Z,97568.72
2023-01-08T04:21:33.447Z,97565.22
2023-01-08T04:23:59.985Z,97563.34
2023-01-08T04:26:26.613Z,97561.81
2023-01-08T04:28:53.125Z,97555.25
2023-01-08T04:31:19.811Z,97557.06
2023-01-08T04:33:46.422Z,97570.34
2023-01-08T04:36:13.260Z,97563.84
2023-01-08T04:38:39.841Z,97573.19
2023-01-08T04:41:06.594Z,97566.00
2023-01-08T04:43:33.612Z,97580.53
2023-01-08T04:46:01.618Z,97577.47
2023-01-08T04:51:03.682Z,97575.16
2023-01-08T04:56:10.046Z,97575.47
2023-01-08T04:58:38.056Z,97575.94
2023-01-08T05:01:19.490Z,97575.16
2023-01-08T05:03:46.304Z,97571.28
2023-01-08T05:06:13.057Z,97584.56
2023-01-08T05:08:39.645Z,97589.31
2023-01-08T05:11:06.218Z,97593.66
2023-01-08T05:13:32.791Z,97587.88
2023-01-08T05:16:02.290Z,97595.66
2023-01-08T05:18:29.775Z,97598.78
2023-01-08T05:21:01.136Z,97594.22
2023-01-08T05:23:28.369Z,97600.50
2023-01-08T05:25:58.508Z,97605.59
2023-01-08T05:28:25.816Z,97600.38
2023-01-08T05:30:52.428Z,97594.72
2023-01-08T05:33:19.273Z,97584.09
2023-01-08T05:35:46.238Z,97593.22
2023-01-08T05:38:12.912Z,97592.63
2023-01-08T05:40:39.625Z,97585.38
2023-01-08T05:43:06.223Z,97585.56
2023-01-08T05:45:33.391Z,97577.84
2023-01-08T05:48:00.282Z,97579.06
2023-01-08T05:50:26.931Z,97581.06
2023-01-08T05:52:53.535Z,97579.19
2023-01-08T05:55:20.069Z,97574.25
2023-01-08T05:57:46.738Z,97582.84
2023-01-08T06:00:14.042Z,97581.25
2023-01-08T06:02:40.698Z,97582.47
2023-01-08T06:05:07.750Z,97593.31
2023-01-08T06:07:34.344Z,97589.44
2023-01-08T06:10:00.927Z,97601.56
2023-01-08T06:12:27.438Z,97590.63
2023-01-08T06:14:54.053Z,97595.28
2023-01-08T06:17:20.643Z,97589.84
2023-01-08T06:19:48.405Z,97587.53
2023-01-08T06:22:14.987Z,97585.16
2023-01-08T06:24:41.531Z,97575.88
2023-01-08T06:29:39.365Z,97564.53
2023-01-08T06:32:06.112Z,97570.78
2023-01-08T06:34:32.651Z,97560.69
2023-01-08T06:36:59.229Z,97565.34
2023-01-08T06:39:25.839Z,97550.97
2023-01-08T06:41:52.358Z,97554.88
2023-01-08T06:44:18.996Z,97558.00
2023-01-08T06:49:23.937Z,97552.22
2023-01-08T06:51:50.536Z,97554.88
2023-01-08T06:54:17.190Z,97561.59
2023-01-08T06:56:53.380Z,97551.47
2023-01-08T06:59:21.069Z,97560.09
2023-01-08T07:01:47.743Z,97552.78
2023-01-08T07:04:14.422Z,97550.47
2023-01-08T07:06:41.072Z,97557.88
2023-01-08T07:09:07.711Z,97562.56
2023-01-08T07:11:34.330Z,97564.44
2023-01-08T07:14:00.911Z,97564.81
2023-01-08T07:16:27.606Z,97569.84
2023-01-08T07:18:54.219Z,97576.44
2023-01-08T07:21:22.625Z,97565.13
2023-01-08T07:23:49.847Z,97570.19
2023-01-08T07:26:16.861Z,97574.47
2023-01-08T07:28:44.300Z,97572.06
2023-01-08T07:31:10.978Z,97582.16
2023-01-08T07:33:37.535Z,97573.59
2023-01-08T07:36:05.759Z,97576.00
2023-01-08T07:38:32.413Z,97572.50
2023-01-08T07:40:59.234Z,97567.47
2023-01-08T07:43:26.544Z,97567.38
2023-01-08T07:45:53.281Z,97574.81
2023-01-08T07:48:19.974Z,97574.00
2023-01-08T07:50:46.662Z,97575.97
2023-01-08T07:53:13.939Z,97566.53
2023-01-08T07:55:40.625Z,97567.66
2023-01-08T07:58:14.662Z,97569.59
2023-01-08T08:00:42.005Z,97562.53
2023-01-08T08:03:13.145Z,97576.22
2023-01-08T08:05:39.816Z,97575.81
2023-01-08T08:08:10.908Z,97563.44
2023-01-08T08:10:38.086Z,97571.97
2023-01-08T08:13:04.948Z,97561.09
2023-01-08T08:15:32.628Z,97558.34
2023-01-08T08:17:59.389Z,97577.00
2023-01-08T08:20:26.145Z,97566.50
2023-01-08T08:22:53.242Z,97570.75
2023-01-08T08:25:19.854Z,97568.41
2023-01-08T08:27:46.443Z,97559.88
2023-01-08T08:30:13.771Z,97565.69
2023-01-08T08:32:40.325Z,97564.53
2023-01-08T08:35:07.307Z,97564.13
2023-01-08T08:37:33.916Z,97564.94
2023-01-08T08:40:00.560Z,97553.28
2023-01-08T08:42:27.140Z,97552.47
2023-01-08T08:44:53.736Z,97553.69
2023-01-08T08:47:20.295Z,97553.19
2023-01-08T08:49:46.859Z,97535.47
2023-01-08T08:52:13.421Z,97544.03
2023-01-08T08:54:41.840Z,97536.59
2023-01-08T08:57:09.467Z,97542.44
2023-01-08T08:59:36.354Z,97536.25
2023-01-08T09:02:03.095Z,97534.69
2023-01-08T09:04:31.813Z,97535.06
2023-01-08T09:06:58.800Z,97536.59
2023-01-08T09:09:26.180Z,97540.13
2023-01-08T09:11:53.492Z,97529.25
2023-01-08T09:14:20.982Z,97526.53
2023-01-08T09:16:47.848Z,97536.25
2023-01-08T09:19:14.599Z,97530.03
2023-01-08T09:21:41.188Z,97526.88
2023-01-08T09:24:08.310Z,97521.81
2023-01-08T09:26:34.887Z,97527.25
2023-01-08T09:29:01.631Z,97537.03
2023-01-08T09:31:28.282Z,97538.97
2023-01-08T09:33:54.858Z,97531.97
2023-01-08T09:36:21.420Z,97535.13
2023-01-08T09:38:47.984Z,97532.41
2023-01-08T09:41:29.107Z,97527.81
2023-01-08T09:43:58.457Z,97531.66
2023-01-08T09:46:27.909Z,97524.75
2023-01-08T09:48:59.174Z,97519.31
2023-01-08T09:51:36.560Z,97530.94
2023-01-08T09:54:04.506Z,97528.59
2023-01-08T09:56:33.210Z,97529.00
2023-01-08T09:59:02.480Z,97533.66
2023-01-08T10:01:31.977Z,97522.47
2023-01-08T10:07:21.519Z,97531.81
2023-01-08T10:09:50.342Z,97525.53
2023-01-08T10:12:26.647Z,97541.13
2023-01-08T10:14:55.251Z,97531.50
2023-01-08T10:17:37.838Z,97533.81
2023-01-08T10:20:31.543Z,97525.59
2023-01-08T10:23:10.292Z,97527.97
2023-01-08T10:25:49.115Z,97529.53
2023-01-08T10:28:38.211Z,97518.19
2023-01-08T10:31:08.067Z,97514.75
2023-01-08T10:36:24.055Z,97517.19
2023-01-08T10:38:59.350Z,97512.47
2023-01-08T10:41:27.209Z,97514.44
2023-01-08T10:44:01.796Z,97499.28
2023-01-08T10:46:32.011Z,97503.94
2023-01-08T10:49:01.314Z,97493.91
2023-01-08T10:51:30.425Z,97497.78
2023-01-08T10:54:13.496Z,97491.91
2023-01-08T10:56:42.798Z,97487.28
2023-01-08T10:59:23.603Z,97494.69
2023-01-08T11:01:52.820Z,97491.59
2023-01-08T11:04:27.497Z,97479.09
2023-01-08T11:06:59.837Z,97490.81
2023-01-08T11:09:31.055Z,97489.59
2023-01-08T11:11:58.659Z,97475.63
2023-01-08T11:14:35.562Z,97479.16
2023-01-08T11:17:10.154Z,97469.06
2023-01-08T11:19:37.062Z,97475.69
2023-01-08T11:24:53.598Z,97466.75
2023-01-08T11:27:29.834Z,97470.66
2023-01-08T11:30:19.706Z,97460.53
2023-01-08T11:32:58.086Z,97459.78
2023-01-08T11:35:31.364Z,97454.31
2023-01-08T11:38:00.151Z,97453.13
2023-01-08T11:40:44.832Z,97449.28
2023-01-08T11:43:37.717Z,97434.06
2023-01-08T11:49:06.545Z,97414.59
2023-01-08T11:51:54.224Z,97415.81
2023-01-08T11:54:46.106Z,97412.69
2023-01-08T11:57:53.245Z,97407.63
2023-01-08T12:00:22.584Z,97406.06
2023-01-08T12:02:58.650Z,97395.16
2023-01-08T12:05:27.954Z,97390.88
2023-01-08T12:08:01.980Z,97396.31
2023-01-08T12:10:43.459Z,97401.41
2023-01-08T12:13:39.346Z,97382.69
2023-01-08T12:16:37.629Z,97380.34
2023-01-08T12:19:13.958Z,97379.94
2023-01-08T12:24:55.561Z,97376.03
2023-01-08T12:27:56.237Z,97375.66
2023-01-08T12:30:51.479Z,97367.09
2023-01-08T12:36:29.644Z,97353.03
2023-01-08T12:39:04.998Z,97355.78
2023-01-08T12:41:35.037Z,97355.00
2023-01-08T12:44:04.398Z,97363.19
2023-01-08T12:46:34.218Z,97356.97
2023-01-08T12:49:02.437Z,97357.34
2023-01-08T12:51:39.261Z,97348.38
2023-01-08T12:54:16.723Z,97349.16
2023-01-08T12:57:16.911Z,97344.47
2023-01-08T12:59:48.084Z,97340.97
2023-01-08T13:02:25.980Z,97344.09
2023-01-08T13:04:52.724Z,97338.25
2023-01-08T13:07:44.466Z,97337.06
2023-01-08T13:10:26.286Z,97332.38
2023-01-08T13:12:55.210Z,97339.78
2023-01-08T13:15:25.424Z,97336.66
2023-01-08T13:17:54.926Z,97329.66
2023-01-08T13:20:27.319Z,97325.75
2023-01-08T13:22:55.978Z,97320.28
2023-01-08T13:25:27.671Z,97323.44
2023-01-08T13:27:54.563Z,97318.38
2023-01-08T13:30:48.458Z,97315.22
2023-01-08T13:33:43.425Z,97311.31
2023-01-08T13:36:12.932Z,97307.03
2023-01-08T13:38:44.359Z,97314.06
2023-01-08T13:41:40.639Z,97302.38
2023-01-08T13:44:26.058Z,97299.28
2023-01-08T13:47:02.053Z,97295.34
2023-01-08T13:49:51.457Z,97289.91
2023-01-08T13:52:34.727Z,97289.13
2023-01-08T13:55:05.745Z,97283.28
2023-01-08T13:57:43.693Z,97271.97
2023-01-08T14:00:19.349Z,97262.97
2023-01-08T14:02:50.688Z,97255.94
2023-01-08T14:05:22.241Z,97260.63
2023-01-08T14:07:49.226Z,97251.03
2023-01-08T14:10:16.758Z,97264.94
2023-01-08T14:12:44.007Z,97271.34
2023-01-08T14:15:20.147Z,97264.97
2023-01-08T14:20:29.032Z,97266.47
2023-01-08T14:22:56.053Z,97263.63
2023-01-08T14:25:23.161Z,97263.31
2023-01-08T14:33:12.960Z,97243.03
2023-01-08T14:35:40.423Z,97259.94
2023-01-08T14:38:13.419Z,97260.72
2023-01-08T14:40:44.649Z,97258.09
2023-01-08T14:43:17.107Z,97270.59
2023-01-08T14:45:52.639Z,97260.88
2023-01-08T14:48:43.506Z,97252.66
2023-01-08T14:51:14.629Z,97253.81
2023-01-08T14:53:46.774Z,97242.56
2023-01-08T14:56:16.890Z,97235.16
2023-01-08T14:58:45.718Z,97239.06
2023-01-08T15:01:25.465Z,97232.81
2023-01-08T15:04:04.535Z,97238.31
2023-01-08T15:06:32.655Z,97237.53
2023-01-08T15:09:00.458Z,97218.78
2023-01-08T15:11:31.284Z,97223.50
2023-01-08T15:13:58.655Z,97215.69
2023-01-08T15:16:32.285Z,97220.69
2023-01-08T15:19:14.007Z,97210.91
2023-01-08T15:21:47.279Z,97195.00
2023-01-08T15:24:32.629Z,97185.25
2023-01-08T15:27:05.364Z,97191.53
2023-01-08T15:29:37.214Z,97191.88
2023-01-08T15:32:13.871Z,97189.22
2023-01-08T15:34:47.016Z,97188.41
2023-01-08T15:39:58.042Z,97173.63
2023-01-08T15:42:48.796Z,97163.47
2023-01-08T15:45:21.374Z,97154.16
2023-01-08T15:47:48.433Z,97142.84
2023-01-08T15:50:15.216Z,97155.34
2023-01-08T15:52:43.644Z,97155.03
2023-01-08T15:55:21.352Z,97155.41
2023-01-08T15:57:48.170Z,97153.88
2023-01-08T16:00:20.414Z,97150.03
2023-01-08T16:02:49.706Z,97152.75
2023-01-08T16:05:17.864Z,97152.75
2023-01-08T16:07:46.301Z,97146.91
2023-01-08T16:10:14.128Z,97142.25
2023-01-08T16:12:40.708Z,97158.59
2023-01-08T16:15:10.232Z,97148.84
2023-01-08T16:17:37.331Z,97146.91
2023-01-08T16:20:05.439Z,97150.41
2023-01-08T16:22:32.113Z,97148.88
2023-01-08T16:24:58.792Z,97135.63
2023-01-08T16:27:25.396Z,97141.47
2023-01-08T16:29:52.007Z,97135.63
2023-01-08T16:32:18.617Z,97134.44
2023-01-08T16:34:45.170Z,97127.44
2023-01-08T16:37:11.766Z,97115.75
2023-01-08T16:39:38.687Z,97104.03
2023-01-08T16:42:05.838Z,97114.94
2023-01-08T16:47:06.893Z,97102.44
2023-01-08T16:49:33.780Z,97091.13
2023-01-08T16:52:00.440Z,97087.63
2023-01-08T16:54:27.573Z,97083.72
2023-01-08T16:56:54.584Z,97079.44
2023-01-08T16:59:23.741Z,97068.16
2023-01-08T17:04:32.976Z,97062.78
2023-01-08T17:06:59.593Z,97060.44
2023-01-08T17:09:26.213Z,97051.09
2023-01-08T17:11:52.883Z,97056.94
2023-01-08T17:14:19.559Z,97051.88
2023-01-08T17:16:47.675Z,97049.19
2023-01-08T17:19:14.384Z,97046.84
2023-01-08T17:21:41.614Z,97054.66
2023-01-08T17:24:09.131Z,97050.78
2023-01-08T17:26:35.921Z,97061.66
2023-01-08T17:29:02.475Z,97052.34
2023-01-08T17:31:29.202Z,97049.97
2023-01-08T17:33:55.827Z,97043.72
2023-01-08T17:36:25.423Z,97033.22
2023-01-08T17:38:54.849Z,97033.97
2023-01-08T17:41:55.001Z,97031.66
2023-01-08T17:44:21.766Z,97028.16
2023-01-08T17:46:48.487Z,97023.47
2023-01-08T17:49:16.576Z,97029.69
2023-01-08T17:51:43.687Z,97027.72
2023-01-08T17:54:11.743Z,97026.59
2023-01-08T17:56:38.533Z,97027.38
2023-01-08T17:59:05.514Z,97019.22
2023-01-08T18:01:32.405Z,97026.63
2023-01-08T18:03:59.116Z,97021.97
2023-01-08T18:06:25.752Z,97014.56
2023-01-08T18:08:52.408Z,97021.94
2023-01-08T18:11:19.111Z,97008.31
2023-01-08T18:13:45.692Z,97011.47
2023-01-08T18:16:14.168Z,96998.63
2023-01-08T18:18:40.852Z,96994.69
2023-01-08T18:21:07.668Z,96983.44
2023-01-08T18:23:34.459Z,96972.94
2023-01-08T18:26:06.147Z,96969.03
2023-01-08T18:28:33.007Z,96968.28
2023-01-08T18:31:00.123Z,96970.63
2023-01-08T18:33:27.582Z,96963.59
2023-01-08T18:35:54.265Z,96946.50
2023-01-08T18:38:20.858Z,96934.06
2023-01-08T18:40:48.547Z,96941.81
2023-01-08T18:43:15.134Z,96939.88
2023-01-08T18:45:41.681Z,96946.69
2023-01-08T18:48:09.643Z,96944.19
2023-01-08T18:50:40.627Z,96958.63
2023-01-08T18:53:08.703Z,96963.84
2023-01-08T18:55:37.055Z,96962.72
2023-01-08T18:58:04.770Z,96951.47
2023-01-08T19:00:31.632Z,96948.78
2023-01-08T19:02:58.221Z,96953.47
2023-01-08T19:05:25.133Z,96957.78
2023-01-08T19:07:51.861Z,96950.78
2023-01-08T19:10:18.504Z,96943.41
2023-01-08T19:15:17.581Z,96934.84
2023-01-08T19:17:44.169Z,96937.19
2023-01-08T19:20:11.168Z,96924.31
2023-01-08T19:22:37.803Z,96925.91
2023-01-08T19:25:04.772Z,96927.06
2023-01-08T19:27:31.357Z,96914.63
2023-01-08T19:29:57.896Z,96911.13
2023-01-08T19:32:24.488Z,96901.41
2023-01-08T19:34:51.184Z,96892.84
2023-01-08T19:37:18.578Z,96881.56
2023-01-08T19:39:45.221Z,96879.22
2023-01-08T19:42:30.538Z,96881.56
2023-01-08T19:47:32.135Z,96876.16
2023-01-08T19:49:58.654Z,96874.16
2023-01-08T19:52:25.208Z,96875.72
2023-01-08T19:54:51.809Z,96881.53
2023-01-08T19:57:18.413Z,96869.88
2023-01-08T19:59:45.050Z,96875.69
2023-01-08T20:02:12.135Z,96867.50
2023-01-08T20:04:44.842Z,96864.78
2023-01-08T20:07:15.004Z,96864.38
2023-01-08T20:09:42.979Z,96860.88
2023-01-08T20:12:10.814Z,96866.31
2023-01-08T20:14:37.505Z,96865.94
2023-01-08T20:17:04.363Z,96861.28
2023-01-08T20:19:31.000Z,96858.53
2023-01-08T20:21:59.460Z,96850.00
2023-01-08T20:24:26.084Z,96845.28
2023-01-08T20:26:52.724Z,96848.81
2023-01-08T20:29:19.307Z,96848.78
2023-01-08T20:31:46.021Z,96848.84
2023-01-08T20:34:15.653Z,96853.47
2023-01-08T20:36:43.891Z,96852.66
2023-01-08T20:39:14.465Z,96844.53
2023-01-08T20:41:46.528Z,96848.44
2023-01-08T20:44:22.308Z,96842.59
2023-01-08T20:46:48.867Z,96844.94
2023-01-08T20:49:18.367Z,96837.16
2023-01-08T20:51:54.305Z,96829.81
2023-01-08T20:54:24.462Z,96823.56
2023-01-08T20:56:51.072Z,96813.50
2023-01-08T20:59:17.691Z,96811.16
2023-01-08T21:01:44.319Z,96812.72
2023-01-08T21:04:11.494Z,96808.84
2023-01-08T21:06:38.255Z,96807.28
2023-01-08T21:09:08.001Z,96800.66
2023-01-08T21:11:36.659Z,96797.19
2023-01-08T21:14:03.966Z,96794.50
2023-01-08T21:16:31.815Z,96789.03
2023-01-08T21:18:59.121Z,96779.31
2023-01-08T21:21:33.100Z,96783.97
2023-01-08T21:24:04.628Z,96779.31
2023-01-08T21:26:32.542Z,96767.66
2023-01-08T21:29:03.013Z,96776.97
2023-01-08T21:31:30.297Z,96775.81
2023-01-08T21:33:59.287Z,96773.72
2023-01-08T21:36:27.772Z,96766.75
2023-01-08T21:38:56.921Z,96771.38
2023-01-08T21:41:48.749Z,96760.16
2023-01-08T21:44:39.604Z,96746.16
2023-01-08T21:47:12.452Z,96738.03
2023-01-08T21:52:29.646Z,96735.72
2023-01-08T21:54:58.319Z,96731.88
2023-01-08T21:57:27.961Z,96728.00
2023-01-08T21:59:55.613Z,96726.44
2023-01-08T22:02:24.264Z,96722.16
2023-01-08T22:04:54.657Z,96708.97
2023-01-08T22:07:21.309Z,96715.97
2023-01-08T22:09:47.877Z,96715.56
2023-01-08T22:12:15.873Z,96710.09
2023-01-08T22:14:42.818Z,96705.47
2023-01-08T22:17:09.573Z,96710.16
2023-01-08T22:19:38.052Z,96710.97
2023-01-08T22:22:05.357Z,96718.38
2023-01-08T22:24:32.191Z,96706.28
2023-01-08T22:26:59.111Z,96702.44
2023-01-08T22:29:25.774Z,96703.25
2023-01-08T22:34:26.421Z,96698.22
2023-01-08T22:36:53.196Z,96692.38
2023-01-08T22:39:19.753Z,96693.94
2023-01-08T22:41:46.357Z,96697.81
2023-01-08T22:44:13.338Z,96691.53
2023-01-08T22:46:40.264Z,96682.63
2023-01-08T22:49:07.659Z,96679.94
2023-01-08T22:51:34.227Z,96685.00
2023-01-08T22:54:00.838Z,96684.25
2023-01-08T22:58:59.463Z,96691.63
2023-01-08T23:01:30.091Z,96693.19
2023-01-08T23:04:01.012Z,96683.09
2023-01-08T23:06:29.886Z,96681.53
2023-01-08T23:08:57.475Z,96685.41
2023-01-08T23:11:24.304Z,96679.19
2023-01-08T23:13:52.105Z,96676.50
2023-01-08T23:16:23.591Z,96689.72
2023-01-08T23:18:51.218Z,96683.88
2023-01-08T23:21:19.484Z,96673.75
2023-01-08T23:26:26.263Z,96682.31
2023-01-08T23:28:53.902Z,96676.09
2023-01-08T23:31:23.483Z,96672.56
2023-01-08T23:33:51.079Z,96672.22
2023-01-08T23:36:20.985Z,96668.28
2023-01-08T23:38:49.485Z,96655.09
2023-01-08T23:43:50.387Z,96643.81
2023-01-08T23:46:18.138Z,96643.03
2023-01-08T23:48:44.904Z,96641.06
2023-01-08T23:51:11.523Z,96637.59
2023-01-08T23:53:38.310Z,96636.03
2023-01-08T23:56:05.334Z,96628.63
2023-01-08T23:58:32.021Z,96635.63
